createdAt,value
2019-01-09T00:00:52.390Z,3.60
2019-01-09T00:03:21.723Z,3.60
2019-01-09T00:05:51.299Z,3.50
2019-01-09T00:08:20.755Z,3.50
2019-01-09T00:10:49.152Z,3.50
2019-01-09T00:13:17.613Z,3.40
2019-01-09T00:15:46.004Z,3.40
2019-01-09T00:18:14.415Z,3.40
2019-01-09T00:20:42.803Z,3.30
2019-01-09T00:23:11.307Z,3.20
2019-01-09T00:25:39.694Z,3.20
2019-01-09T00:28:08.078Z,3.10
2019-01-09T00:30:36.483Z,3.00
2019-01-09T00:33:04.867Z,3.00
2019-01-09T00:35:37.439Z,2.90
2019-01-09T00:38:03.379Z,2.90
2019-01-09T00:40:31.735Z,2.80
2019-01-09T00:43:00.121Z,2.70
2019-01-09T00:45:28.539Z,2.70
2019-01-09T00:47:56.923Z,2.60
2019-01-09T00:50:25.329Z,2.50
2019-01-09T00:52:53.735Z,2.40
2019-01-09T00:55:22.121Z,2.40
2019-01-09T00:57:50.600Z,2.30
2019-01-09T01:00:21.091Z,2.30
2019-01-09T01:03:12.439Z,2.20
2019-01-09T01:06:02.172Z,2.20
2019-01-09T01:08:53.184Z,2.20
2019-01-09T01:11:50.650Z,2.20
2019-01-09T01:14:31.046Z,2.20
2019-01-09T01:17:33.025Z,2.20
2019-01-09T01:20:25.969Z,2.20
2019-01-09T01:23:26.054Z,2.10
2019-01-09T01:26:17.025Z,2.10
2019-01-09T01:29:32.804Z,2.00
2019-01-09T01:32:25.483Z,2.00
2019-01-09T01:35:19.274Z,2.00
2019-01-09T01:38:05.475Z,2.00
2019-01-09T01:40:48.775Z,2.00
2019-01-09T01:43:20.429Z,2.00
2019-01-09T01:45:57.796Z,2.00
2019-01-09T01:49:02.524Z,2.00
2019-01-09T01:51:42.918Z,2.00
2019-01-09T01:54:32.058Z,2.00
2019-01-09T01:57:09.516Z,2.00
2019-01-09T01:59:50.103Z,2.00
2019-01-09T02:02:44.242Z,2.00
2019-01-09T02:05:21.591Z,2.00
2019-01-09T02:07:55.963Z,2.00
2019-01-09T02:10:48.752Z,2.00
2019-01-09T02:13:32.113Z,2.00
2019-01-09T02:16:20.080Z,2.00
2019-01-09T02:18:57.474Z,2.00
2019-01-09T02:21:34.673Z,1.90
2019-01-09T02:24:40.986Z,1.90
2019-01-09T02:27:21.218Z,1.90
2019-01-09T02:30:04.751Z,1.90
2019-01-09T02:32:39.146Z,1.90
2019-01-09T02:35:11.367Z,2.00
2019-01-09T02:37:39.766Z,2.00
2019-01-09T02:40:08.168Z,2.00
2019-01-09T02:42:36.568Z,2.00
2019-01-09T02:45:05.445Z,2.10
2019-01-09T02:47:33.865Z,2.10
2019-01-09T02:50:02.255Z,2.10
2019-01-09T02:52:30.688Z,2.10
2019-01-09T02:54:59.092Z,2.20
2019-01-09T02:57:27.477Z,2.20
2019-01-09T02:59:55.891Z,2.20
2019-01-09T03:02:24.377Z,2.20
2019-01-09T03:04:52.831Z,2.30
2019-01-09T03:07:21.169Z,2.30
2019-01-09T03:09:50.651Z,2.30
2019-01-09T03:12:19.039Z,2.30
2019-01-09T03:14:47.492Z,2.30
2019-01-09T03:17:15.898Z,2.40
2019-01-09T03:19:44.421Z,2.30
2019-01-09T03:22:12.822Z,2.30
2019-01-09T03:24:41.213Z,2.30
2019-01-09T03:27:09.606Z,2.30
2019-01-09T03:29:37.979Z,2.30
2019-01-09T03:32:06.395Z,2.30
2019-01-09T03:34:34.760Z,2.30
2019-01-09T03:37:03.137Z,2.40
2019-01-09T03:39:32.134Z,2.40
2019-01-09T03:42:00.515Z,2.30
2019-01-09T03:44:28.906Z,2.30
2019-01-09T03:46:57.297Z,2.30
2019-01-09T03:49:25.708Z,2.30
2019-01-09T03:51:54.085Z,2.30
2019-01-09T03:54:22.462Z,2.30
2019-01-09T03:56:50.869Z,2.40
2019-01-09T03:59:19.241Z,2.40
2019-01-09T04:01:47.646Z,2.50
2019-01-09T04:04:16.020Z,2.60
2019-01-09T04:06:44.424Z,2.60
2019-01-09T04:09:12.815Z,2.70
2019-01-09T04:11:41.485Z,2.80
2019-01-09T04:14:09.853Z,2.80
2019-01-09T04:16:38.228Z,2.90
2019-01-09T04:19:06.626Z,2.90
2019-01-09T04:21:35.006Z,2.90
2019-01-09T04:24:03.406Z,2.90
2019-01-09T04:26:31.781Z,3.00
2019-01-09T04:29:00.246Z,3.00
2019-01-09T04:31:28.610Z,3.00
2019-01-09T04:33:56.986Z,3.00
2019-01-09T04:36:25.385Z,3.00
2019-01-09T04:38:53.757Z,2.90
2019-01-09T04:41:22.159Z,2.80
2019-01-09T04:43:50.534Z,2.60
2019-01-09T04:46:31.181Z,2.50
2019-01-09T04:49:00.929Z,2.40
2019-01-09T04:51:29.310Z,2.30
2019-01-09T04:53:59.362Z,2.30
2019-01-09T04:56:28.609Z,2.20
2019-01-09T04:58:56.991Z,2.10
2019-01-09T05:01:25.399Z,2.00
2019-01-09T05:03:53.792Z,1.90
2019-01-09T05:06:22.206Z,1.80
2019-01-09T05:08:50.583Z,1.70
2019-01-09T05:11:19.002Z,1.60
2019-01-09T05:13:47.378Z,1.60
2019-01-09T05:16:15.862Z,1.60
2019-01-09T05:18:45.118Z,1.60
2019-01-09T05:21:13.523Z,1.70
2019-01-09T05:23:47.977Z,1.70
2019-01-09T05:26:16.359Z,1.70
2019-01-09T05:28:44.769Z,1.70
2019-01-09T05:31:13.146Z,1.70
2019-01-09T05:33:41.557Z,1.70
2019-01-09T05:36:09.930Z,1.70
2019-01-09T05:38:38.329Z,1.70
2019-01-09T05:41:06.779Z,1.70
2019-01-09T05:43:35.190Z,1.70
2019-01-09T05:46:03.569Z,1.80
2019-01-09T05:48:31.980Z,1.90
2019-01-09T05:51:00.430Z,1.90
2019-01-09T05:53:28.834Z,2.00
2019-01-09T05:55:57.462Z,2.10
2019-01-09T05:58:25.830Z,2.10
2019-01-09T06:00:54.238Z,2.10
2019-01-09T06:05:48.493Z,2.00
2019-01-09T06:11:06.486Z,2.00
2019-01-09T06:13:35.224Z,2.00
2019-01-09T06:16:03.607Z,2.00
2019-01-09T06:18:32.015Z,2.00
2019-01-09T06:21:00.390Z,2.00
2019-01-09T06:23:28.810Z,2.00
2019-01-09T06:25:57.376Z,2.00
2019-01-09T06:28:25.783Z,2.10
2019-01-09T06:30:54.323Z,2.10
2019-01-09T06:33:22.799Z,2.10
2019-01-09T06:35:51.287Z,2.20
2019-01-09T06:38:21.680Z,2.20
2019-01-09T06:40:53.095Z,2.30
2019-01-09T06:43:27.786Z,2.30
2019-01-09T06:45:56.345Z,2.20
2019-01-09T06:48:28.072Z,2.30
2019-01-09T06:51:00.549Z,2.30
2019-01-09T06:53:29.261Z,2.30
2019-01-09T06:55:57.822Z,2.30
2019-01-09T06:58:26.655Z,2.30
2019-01-09T07:00:56.134Z,2.30
2019-01-09T07:03:24.555Z,2.30
2019-01-09T07:05:53.873Z,2.30
2019-01-09T07:08:22.474Z,2.30
2019-01-09T07:10:50.953Z,2.30
2019-01-09T07:13:19.711Z,2.30
2019-01-09T07:15:48.426Z,2.30
2019-01-09T07:18:17.093Z,2.20
2019-01-09T07:23:45.436Z,2.20
2019-01-09T07:26:13.967Z,2.20
2019-01-09T07:28:42.660Z,2.20
2019-01-09T07:31:11.860Z,2.30
2019-01-09T07:33:40.393Z,2.30
2019-01-09T07:36:08.939Z,2.30
2019-01-09T07:38:37.355Z,2.30
2019-01-09T07:41:11.804Z,2.30
2019-01-09T07:43:50.529Z,2.30
2019-01-09T07:46:23.696Z,2.40
2019-01-09T07:48:52.270Z,2.50
2019-01-09T07:51:22.920Z,2.40
2019-01-09T07:53:51.411Z,2.40
2019-01-09T07:56:19.999Z,2.40
2019-01-09T07:58:48.526Z,2.40
2019-01-09T08:01:16.983Z,2.40
2019-01-09T08:03:45.413Z,2.40
2019-01-09T08:06:13.801Z,2.40
2019-01-09T08:08:42.222Z,2.40
2019-01-09T08:11:10.642Z,2.40
2019-01-09T08:13:39.028Z,2.40
2019-01-09T08:16:07.449Z,2.50
2019-01-09T08:18:39.923Z,2.50
2019-01-09T08:21:08.294Z,2.60
2019-01-09T08:23:36.806Z,2.60
2019-01-09T08:26:05.193Z,2.70
2019-01-09T08:28:33.601Z,2.70
2019-01-09T08:31:02.010Z,2.70
2019-01-09T08:33:30.440Z,2.80
2019-01-09T08:35:58.818Z,2.80
2019-01-09T08:38:28.000Z,2.80
2019-01-09T08:40:56.543Z,2.80
2019-01-09T08:43:24.952Z,2.80
2019-01-09T08:45:53.333Z,2.80
2019-01-09T08:48:21.770Z,2.80
2019-01-09T08:50:50.158Z,2.80
2019-01-09T08:53:18.575Z,2.80
2019-01-09T08:55:46.963Z,2.90
2019-01-09T08:58:15.371Z,3.00
2019-01-09T09:00:43.767Z,3.10
2019-01-09T09:03:12.174Z,3.10
2019-01-09T09:05:40.562Z,3.10
2019-01-09T09:08:12.272Z,3.10
2019-01-09T09:10:38.999Z,3.10
2019-01-09T09:13:09.027Z,3.20
2019-01-09T09:15:37.412Z,3.10
2019-01-09T09:18:05.839Z,3.10
2019-01-09T09:20:34.450Z,3.10
2019-01-09T09:23:02.868Z,3.10
2019-01-09T09:25:31.238Z,3.20
2019-01-09T09:27:59.654Z,3.30
2019-01-09T09:30:28.041Z,3.30
2019-01-09T09:32:56.462Z,3.30
2019-01-09T09:35:24.915Z,3.40
2019-01-09T09:37:53.322Z,3.40
2019-01-09T09:40:21.706Z,3.50
2019-01-09T09:42:50.125Z,3.50
2019-01-09T09:45:18.511Z,3.60
2019-01-09T09:47:46.924Z,3.50
2019-01-09T09:50:16.287Z,3.50
2019-01-09T09:52:44.675Z,3.50
2019-01-09T09:55:13.330Z,3.50
2019-01-09T09:57:41.847Z,3.50
2019-01-09T10:00:13.518Z,3.60
2019-01-09T10:02:41.950Z,3.50
2019-01-09T10:05:10.368Z,3.50
2019-01-09T10:07:38.781Z,3.40
2019-01-09T10:10:10.592Z,3.30
2019-01-09T10:12:39.025Z,3.30
2019-01-09T10:15:13.132Z,3.30
2019-01-09T10:17:41.515Z,3.20
2019-01-09T10:20:15.179Z,3.30
2019-01-09T10:22:43.902Z,3.30
2019-01-09T10:25:13.940Z,3.30
2019-01-09T10:27:42.323Z,3.30
2019-01-09T10:30:19.442Z,3.30
2019-01-09T10:32:47.814Z,3.30
2019-01-09T10:35:16.247Z,3.30
2019-01-09T10:37:46.694Z,3.30
2019-01-09T10:40:17.542Z,3.40
2019-01-09T10:42:45.954Z,3.40
2019-01-09T10:45:17.436Z,3.50
2019-01-09T10:47:45.832Z,3.60
2019-01-09T10:50:16.643Z,3.60
2019-01-09T10:52:45.086Z,3.60
2019-01-09T10:55:16.044Z,3.70
2019-01-09T10:57:44.414Z,3.70
2019-01-09T11:00:18.536Z,3.80
2019-01-09T11:02:47.083Z,3.80
2019-01-09T11:05:15.558Z,3.90
2019-01-09T11:07:43.929Z,4.00
2019-01-09T11:10:15.608Z,4.00
2019-01-09T11:12:43.942Z,4.00
2019-01-09T11:15:12.786Z,3.90
2019-01-09T11:17:41.235Z,3.90
2019-01-09T11:20:12.848Z,3.90
2019-01-09T11:22:41.222Z,4.00
2019-01-09T11:25:13.136Z,4.10
2019-01-09T11:27:41.510Z,4.20
2019-01-09T11:30:12.821Z,4.20
2019-01-09T11:32:41.271Z,4.10
2019-01-09T11:35:11.991Z,4.10
2019-01-09T11:37:40.285Z,4.20
2019-01-09T11:40:11.550Z,4.20
2019-01-09T11:42:39.930Z,4.30
2019-01-09T11:45:14.101Z,4.40
2019-01-09T11:47:42.477Z,4.40
2019-01-09T11:50:12.416Z,4.30
2019-01-09T11:52:40.804Z,4.20
2019-01-09T11:55:10.851Z,4.10
2019-01-09T11:57:39.231Z,4.00
2019-01-09T12:00:16.621Z,3.90
2019-01-09T12:02:45.000Z,3.90
2019-01-09T12:05:13.410Z,3.90
2019-01-09T12:07:41.783Z,3.90
2019-01-09T12:10:15.761Z,4.00
2019-01-09T12:12:44.375Z,4.00
2019-01-09T12:15:14.317Z,3.90
2019-01-09T12:17:42.687Z,4.00
2019-01-09T12:20:13.552Z,3.90
2019-01-09T12:22:41.981Z,3.90
2019-01-09T12:25:11.233Z,4.00
2019-01-09T12:27:39.617Z,3.90
2019-01-09T12:30:14.041Z,3.80
2019-01-09T12:32:42.418Z,3.80
2019-01-09T12:35:10.822Z,3.80
2019-01-09T12:37:39.206Z,3.80
2019-01-09T12:40:08.355Z,3.80
2019-01-09T12:42:36.736Z,3.80
2019-01-09T12:45:11.485Z,3.70
2019-01-09T12:47:39.860Z,3.80
2019-01-09T12:50:11.667Z,3.80
2019-01-09T12:52:40.809Z,3.80
2019-01-09T12:55:10.554Z,3.70
2019-01-09T12:57:38.978Z,3.70
2019-01-09T13:00:24.673Z,3.60
2019-01-09T13:02:53.050Z,3.50
2019-01-09T13:05:21.522Z,3.50
2019-01-09T13:07:49.898Z,3.40
2019-01-09T13:10:18.277Z,3.40
2019-01-09T13:12:46.749Z,3.40
2019-01-09T13:15:15.134Z,3.30
2019-01-09T13:17:43.531Z,3.30
2019-01-09T13:20:17.302Z,3.20
2019-01-09T13:22:45.705Z,3.20
2019-01-09T13:25:15.071Z,3.10
2019-01-09T13:27:44.000Z,3.00
2019-01-09T13:30:22.246Z,3.00
2019-01-09T13:32:50.615Z,3.00
2019-01-09T13:35:19.031Z,3.00
2019-01-09T13:37:47.405Z,3.00
2019-01-09T13:40:17.526Z,3.00
2019-01-09T13:42:45.935Z,3.00
2019-01-09T13:45:18.256Z,3.10
2019-01-09T13:47:47.280Z,3.10
2019-01-09T13:50:19.504Z,3.00
2019-01-09T13:52:48.514Z,3.00
2019-01-09T13:55:17.169Z,3.00
2019-01-09T13:57:46.299Z,3.00
2019-01-09T14:00:17.328Z,3.00
2019-01-09T14:02:45.763Z,3.10
2019-01-09T14:05:14.151Z,3.10
2019-01-09T14:07:42.570Z,3.10
2019-01-09T14:10:16.759Z,3.10
2019-01-09T14:12:45.173Z,3.10
2019-01-09T14:15:16.235Z,3.10
2019-01-09T14:17:44.652Z,3.10
2019-01-09T14:20:13.369Z,3.00
2019-01-09T14:22:42.846Z,3.00
2019-01-09T14:25:13.161Z,3.00
2019-01-09T14:27:41.577Z,3.00
2019-01-09T14:30:22.294Z,3.00
2019-01-09T14:32:51.226Z,3.00
2019-01-09T14:35:19.537Z,3.10
2019-01-09T14:37:48.107Z,3.10
2019-01-09T14:40:18.571Z,3.10
2019-01-09T14:42:46.978Z,3.10
2019-01-09T14:45:16.976Z,3.10
2019-01-09T14:47:45.450Z,3.10
2019-01-09T14:50:16.366Z,3.00
2019-01-09T14:52:44.754Z,3.00
2019-01-09T14:55:13.158Z,2.90
2019-01-09T14:57:41.525Z,2.90
2019-01-09T15:00:13.297Z,2.90
2019-01-09T15:02:41.674Z,2.80
2019-01-09T15:05:10.145Z,2.80
2019-01-09T15:07:38.613Z,2.80
2019-01-09T15:10:14.739Z,2.70
2019-01-09T15:12:43.479Z,2.70
2019-01-09T15:15:14.396Z,2.60
2019-01-09T15:17:42.815Z,2.60
2019-01-09T15:20:14.210Z,2.50
2019-01-09T15:22:42.610Z,2.50
2019-01-09T15:25:14.230Z,2.50
2019-01-09T15:28:02.580Z,2.50
2019-01-09T15:30:31.791Z,2.50
2019-01-09T15:33:00.228Z,2.40
2019-01-09T15:35:28.589Z,2.40
2019-01-09T15:37:57.318Z,2.40
2019-01-09T15:40:29.643Z,2.40
2019-01-09T15:42:58.057Z,2.40
2019-01-09T15:45:26.558Z,2.40
2019-01-09T15:47:54.934Z,2.40
2019-01-09T15:50:25.976Z,2.30
2019-01-09T15:52:54.360Z,2.30
2019-01-09T15:55:25.036Z,2.20
2019-01-09T15:57:54.361Z,2.30
2019-01-09T16:00:30.227Z,2.20
2019-01-09T16:02:59.357Z,2.20
2019-01-09T16:05:27.787Z,2.20
2019-01-09T16:07:56.371Z,2.10
2019-01-09T16:10:24.918Z,2.10
2019-01-09T16:12:53.530Z,2.10
2019-01-09T16:15:22.999Z,2.10
2019-01-09T16:17:52.810Z,2.10
2019-01-09T16:20:22.815Z,2.00
2019-01-09T16:22:53.106Z,2.00
2019-01-09T16:25:22.174Z,2.00
2019-01-09T16:27:50.849Z,1.90
2019-01-09T16:30:45.123Z,1.90
2019-01-09T16:33:14.120Z,1.90
2019-01-09T16:35:44.360Z,1.80
2019-01-09T16:38:13.429Z,1.80
2019-01-09T16:40:42.427Z,1.80
2019-01-09T16:43:11.137Z,1.80
2019-01-09T16:45:40.124Z,1.80
2019-01-09T16:48:09.240Z,1.80
2019-01-09T16:50:38.273Z,1.80
2019-01-09T16:53:07.217Z,1.80
2019-01-09T16:55:36.410Z,1.80
2019-01-09T16:58:05.613Z,1.70
2019-01-09T17:00:40.162Z,1.70
2019-01-09T17:03:10.432Z,1.80
2019-01-09T17:05:41.458Z,1.80
2019-01-09T17:08:10.534Z,1.80
2019-01-09T17:10:39.667Z,1.80
2019-01-09T17:13:08.985Z,1.80
2019-01-09T17:15:37.521Z,1.80
2019-01-09T17:18:06.952Z,1.80
2019-01-09T17:20:35.971Z,1.80
2019-01-09T17:23:04.495Z,1.80
2019-01-09T17:25:33.650Z,1.80
2019-01-09T17:28:02.924Z,1.80
2019-01-09T17:30:32.489Z,1.80
2019-01-09T17:33:01.541Z,1.80
2019-01-09T17:35:31.816Z,1.80
2019-01-09T17:38:03.012Z,1.80
2019-01-09T17:40:40.537Z,1.70
2019-01-09T17:43:02.379Z,1.70
2019-01-09T17:45:30.799Z,1.80
2019-01-09T17:47:59.210Z,1.70
2019-01-09T17:50:29.959Z,1.70
2019-01-09T17:52:58.363Z,1.70
2019-01-09T17:55:26.745Z,1.70
2019-01-09T17:57:55.149Z,1.70
2019-01-09T18:00:30.105Z,1.70
2019-01-09T18:02:59.114Z,1.70
2019-01-09T18:05:27.489Z,1.70
2019-01-09T18:07:55.900Z,1.60
2019-01-09T18:10:26.300Z,1.60
2019-01-09T18:12:55.990Z,1.60
2019-01-09T18:15:24.981Z,1.60
2019-01-09T18:17:55.317Z,1.60
2019-01-09T18:20:23.876Z,1.60
2019-01-09T18:22:53.129Z,1.70
2019-01-09T18:25:29.605Z,1.60
2019-01-09T18:27:58.110Z,1.60
2019-01-09T18:30:32.621Z,1.60
2019-01-09T18:33:16.118Z,1.60
2019-01-09T18:35:59.580Z,1.60
2019-01-09T18:38:37.622Z,1.60
2019-01-09T18:41:27.232Z,1.60
2019-01-09T18:44:07.702Z,1.70
2019-01-09T18:46:51.797Z,1.70
2019-01-09T18:49:41.987Z,1.80
2019-01-09T18:55:03.926Z,1.80
2019-01-09T18:57:33.433Z,1.80
2019-01-09T19:00:02.072Z,1.80
2019-01-09T19:02:32.362Z,1.80
2019-01-09T19:08:16.703Z,1.80
2019-01-09T19:13:44.709Z,1.80
2019-01-09T19:16:13.519Z,1.80
2019-01-09T19:18:44.609Z,1.80
2019-01-09T19:21:23.889Z,1.80
2019-01-09T19:27:05.437Z,1.90
2019-01-09T19:29:34.197Z,1.80
2019-01-09T19:32:04.681Z,1.90
2019-01-09T19:34:50.667Z,1.80
2019-01-09T19:37:21.106Z,1.80
2019-01-09T19:39:54.267Z,1.80
2019-01-09T19:42:25.005Z,1.80
2019-01-09T19:44:54.155Z,1.80
2019-01-09T19:47:28.909Z,1.80
2019-01-09T19:50:00.276Z,1.90
2019-01-09T19:52:28.732Z,1.90
2019-01-09T19:54:57.149Z,1.80
2019-01-09T19:57:25.621Z,1.90
2019-01-09T19:59:54.073Z,1.90
2019-01-09T20:02:23.281Z,1.90
2019-01-09T20:04:51.739Z,1.80
2019-01-09T20:07:20.322Z,1.80
2019-01-09T20:09:48.697Z,1.80
2019-01-09T20:12:17.137Z,1.80
2019-01-09T20:14:45.486Z,1.90
2019-01-09T20:17:13.975Z,1.90
2019-01-09T20:19:52.767Z,1.90
2019-01-09T20:22:22.775Z,1.90
2019-01-09T20:24:53.738Z,1.90
2019-01-09T20:27:27.926Z,1.80
2019-01-09T20:30:08.859Z,1.90
2019-01-09T20:32:45.864Z,1.90
2019-01-09T20:35:12.699Z,1.90
2019-01-09T20:37:41.221Z,1.90
2019-01-09T20:40:12.596Z,1.90
2019-01-09T20:42:42.640Z,1.90
2019-01-09T20:45:19.782Z,1.90
2019-01-09T20:47:48.122Z,1.90
2019-01-09T20:50:19.786Z,1.90
2019-01-09T20:52:48.195Z,1.90
2019-01-09T20:55:16.645Z,1.90
2019-01-09T20:57:45.045Z,1.90
2019-01-09T21:00:16.672Z,1.90
2019-01-09T21:02:45.341Z,1.90
2019-01-09T21:05:18.344Z,1.90
2019-01-09T21:07:47.372Z,1.90
2019-01-09T21:10:16.560Z,1.90
2019-01-09T21:12:44.891Z,1.90
2019-01-09T21:15:16.350Z,1.90
2019-01-09T21:17:44.753Z,1.90
2019-01-09T21:20:18.712Z,1.90
2019-01-09T21:22:47.237Z,1.90
2019-01-09T21:25:16.716Z,1.90
2019-01-09T21:27:45.193Z,1.80
2019-01-09T21:30:20.303Z,1.80
2019-01-09T21:32:52.234Z,1.80
2019-01-09T21:35:20.906Z,1.80
2019-01-09T21:37:50.059Z,1.70
2019-01-09T21:40:27.442Z,1.70
2019-01-09T21:42:56.038Z,1.60
2019-01-09T21:45:24.888Z,1.70
2019-01-09T21:47:56.533Z,1.60
2019-01-09T21:50:26.738Z,1.50
2019-01-09T21:52:55.215Z,1.50
2019-01-09T21:55:25.220Z,1.50
2019-01-09T21:57:53.901Z,1.40
2019-01-09T22:00:24.629Z,1.50
2019-01-09T22:02:53.021Z,1.50
2019-01-09T22:05:22.267Z,1.50
2019-01-09T22:07:50.642Z,1.50
2019-01-09T22:10:22.170Z,1.50
2019-01-09T22:12:50.566Z,1.50
2019-01-09T22:15:18.974Z,1.40
2019-01-09T22:17:47.437Z,1.40
2019-01-09T22:20:17.802Z,1.40
2019-01-09T22:22:46.718Z,1.50
2019-01-09T22:25:15.311Z,1.50
2019-01-09T22:27:43.709Z,1.50
2019-01-09T22:30:23.963Z,1.50
2019-01-09T22:32:52.430Z,1.50
2019-01-09T22:35:20.883Z,1.50
2019-01-09T22:37:52.224Z,1.50
2019-01-09T22:40:21.659Z,1.60
2019-01-09T22:42:50.056Z,1.50
2019-01-09T22:45:18.739Z,1.50
2019-01-09T22:47:47.080Z,1.50
2019-01-09T22:50:18.225Z,1.50
2019-01-09T22:52:46.619Z,1.50
2019-01-09T22:55:15.409Z,1.50
2019-01-09T22:57:43.986Z,1.50
2019-01-09T23:00:22.457Z,1.50
2019-01-09T23:02:50.837Z,1.60
2019-01-09T23:05:19.327Z,1.60
2019-01-09T23:07:47.706Z,1.60
2019-01-09T23:10:16.270Z,1.60
2019-01-09T23:12:45.486Z,1.70
2019-01-09T23:15:13.967Z,1.70
2019-01-09T23:17:42.355Z,1.70
2019-01-09T23:20:13.210Z,1.80
2019-01-09T23:22:41.599Z,1.80
2019-01-09T23:25:10.002Z,1.80
2019-01-09T23:27:38.377Z,1.80
2019-01-09T23:30:11.335Z,1.70
2019-01-09T23:32:39.796Z,1.80
2019-01-09T23:35:10.233Z,1.80
2019-01-09T23:37:38.616Z,1.80
2019-01-09T23:40:10.266Z,1.80
2019-01-09T23:42:44.394Z,1.90
2019-01-09T23:45:14.542Z,1.90
2019-01-09T23:47:42.918Z,1.90
2019-01-09T23:50:11.853Z,1.90
2019-01-09T23:52:40.232Z,1.90
2019-01-09T23:55:10.982Z,1.80
2019-01-09T23:57:39.375Z,1.90
